sensor_id;sensor_type;location;lat;lon;timestamp;P1;durP1;ratioP1;P2;durP2;ratioP2
28772;SDS011;15925;51.222;5.678;2023-08-01T00:00:49;0.35;;;0.17;;
28772;SDS011;15925;51.222;5.678;2023-08-01T00:03:15;1.23;;;0.20;;
28772;SDS011;15925;51.222;5.678;2023-08-01T00:05:41;0.00;;;0.00;;
28772;SDS011;15925;51.222;5.678;2023-08-01T00:08:12;0.60;;;0.22;;
28772;SDS011;15925;51.222;5.678;2023-08-01T00:10:39;0.00;;;0.00;;
28772;SDS011;15925;51.222;5.678;2023-08-01T00:13:05;0.08;;;0.08;;
28772;SDS011;15925;51.222;5.678;2023-08-01T00:15:31;0.20;;;0.10;;
28772;SDS011;15925;51.222;5.678;2023-08-01T00:17:57;3.45;;;0.25;;
28772;SDS011;15925;51.222;5.678;2023-08-01T00:20:23;0.33;;;0.20;;
28772;SDS011;15925;51.222;5.678;2023-08-01T00:22:49;0.80;;;0.30;;
28772;SDS011;15925;51.222;5.678;2023-08-01T00:25:15;0.33;;;0.30;;
28772;SDS011;15925;51.222;5.678;2023-08-01T00:27:40;0.87;;;0.30;;
28772;SDS011;15925;51.222;5.678;2023-08-01T00:30:07;1.03;;;0.73;;
28772;SDS011;15925;51.222;5.678;2023-08-01T00:32:33;0.98;;;0.38;;
28772;SDS011;15925;51.222;5.678;2023-08-01T00:34:59;0.70;;;0.50;;
28772;SDS011;15925;51.222;5.678;2023-08-01T00:37:25;3.50;;;0.70;;
28772;SDS011;15925;51.222;5.678;2023-08-01T00:39:51;0.40;;;0.40;;
28772;SDS011;15925;51.222;5.678;2023-08-01T00:42:17;3.00;;;0.30;;
28772;SDS011;15925;51.222;5.678;2023-08-01T00:44:42;1.70;;;0.80;;
28772;SDS011;15925;51.222;5.678;2023-08-01T00:47:09;1.17;;;0.32;;
28772;SDS011;15925;51.222;5.678;2023-08-01T00:52:01;0.93;;;0.60;;
28772;SDS011;15925;51.222;5.678;2023-08-01T00:54:27;0.82;;;0.52;;
28772;SDS011;15925;51.222;5.678;2023-08-01T00:56:55;1.33;;;0.50;;
28772;SDS011;15925;51.222;5.678;2023-08-01T00:59:21;0.87;;;0.47;;
28772;SDS011;15925;51.222;5.678;2023-08-01T01:01:47;2.08;;;1.27;;
28772;SDS011;15925;51.222;5.678;2023-08-01T01:04:13;1.40;;;0.93;;
28772;SDS011;15925;51.222;5.678;2023-08-01T01:06:45;2.47;;;1.30;;
28772;SDS011;15925;51.222;5.678;2023-08-01T01:09:16;1.33;;;0.90;;
28772;SDS011;15925;51.222;5.678;2023-08-01T01:14:09;0.52;;;0.52;;
28772;SDS011;15925;51.222;5.678;2023-08-01T01:16:34;1.47;;;0.80;;
28772;SDS011;15925;51.222;5.678;2023-08-01T01:19:00;0.97;;;0.77;;
28772;SDS011;15925;51.222;5.678;2023-08-01T01:21:27;1.23;;;0.88;;
28772;SDS011;15925;51.222;5.678;2023-08-01T01:23:53;4.00;;;1.57;;
28772;SDS011;15925;51.222;5.678;2023-08-01T01:26:20;1.60;;;0.95;;
28772;SDS011;15925;51.222;5.678;2023-08-01T01:28:47;1.15;;;0.70;;
28772;SDS011;15925;51.222;5.678;2023-08-01T01:31:13;9.55;;;1.83;;
28772;SDS011;15925;51.222;5.678;2023-08-01T01:33:41;5.55;;;2.13;;
28772;SDS011;15925;51.222;5.678;2023-08-01T01:36:07;1.95;;;1.33;;
28772;SDS011;15925;51.222;5.678;2023-08-01T01:38:34;4.57;;;1.70;;
28772;SDS011;15925;51.222;5.678;2023-08-01T01:40:59;2.40;;;1.40;;
28772;SDS011;15925;51.222;5.678;2023-08-01T01:43:25;6.75;;;1.58;;
28772;SDS011;15925;51.222;5.678;2023-08-01T01:45:51;7.00;;;2.40;;
28772;SDS011;15925;51.222;5.678;2023-08-01T01:48:17;11.77;;;1.70;;
28772;SDS011;15925;51.222;5.678;2023-08-01T01:50:43;2.10;;;1.23;;
28772;SDS011;15925;51.222;5.678;2023-08-01T01:53:09;5.45;;;1.40;;
28772;SDS011;15925;51.222;5.678;2023-08-01T01:55:34;5.53;;;1.80;;
28772;SDS011;15925;51.222;5.678;2023-08-01T01:58:00;4.18;;;1.90;;
28772;SDS011;15925;51.222;5.678;2023-08-01T02:00:26;11.43;;;1.60;;
28772;SDS011;15925;51.222;5.678;2023-08-01T02:02:52;12.27;;;2.40;;
28772;SDS011;15925;51.222;5.678;2023-08-01T02:05:18;3.67;;;1.92;;
28772;SDS011;15925;51.222;5.678;2023-08-01T02:07:44;6.40;;;3.13;;
28772;SDS011;15925;51.222;5.678;2023-08-01T02:10:09;8.57;;;3.33;;
28772;SDS011;15925;51.222;5.678;2023-08-01T02:12:35;5.13;;;2.95;;
28772;SDS011;15925;51.222;5.678;2023-08-01T02:15:01;8.20;;;3.47;;
28772;SDS011;15925;51.222;5.678;2023-08-01T02:17:27;8.25;;;3.60;;
28772;SDS011;15925;51.222;5.678;2023-08-01T02:19:53;13.20;;;4.40;;
28772;SDS011;15925;51.222;5.678;2023-08-01T02:22:19;7.97;;;3.88;;
28772;SDS011;15925;51.222;5.678;2023-08-01T02:24:45;10.75;;;4.68;;
28772;SDS011;15925;51.222;5.678;2023-08-01T02:27:11;11.33;;;5.00;;
28772;SDS011;15925;51.222;5.678;2023-08-01T02:29:37;12.13;;;5.47;;
28772;SDS011;15925;51.222;5.678;2023-08-01T02:32:02;9.13;;;4.33;;
28772;SDS011;15925;51.222;5.678;2023-08-01T02:34:28;11.57;;;4.32;;
28772;SDS011;15925;51.222;5.678;2023-08-01T02:36:54;8.77;;;4.47;;
28772;SDS011;15925;51.222;5.678;2023-08-01T02:39:21;19.38;;;5.75;;
28772;SDS011;15925;51.222;5.678;2023-08-01T02:41:47;10.98;;;4.97;;
28772;SDS011;15925;51.222;5.678;2023-08-01T02:44:13;16.00;;;5.93;;
28772;SDS011;15925;51.222;5.678;2023-08-01T02:46:39;12.02;;;4.60;;
28772;SDS011;15925;51.222;5.678;2023-08-01T02:49:04;11.60;;;5.03;;
28772;SDS011;15925;51.222;5.678;2023-08-01T02:51:30;13.33;;;4.97;;
28772;SDS011;15925;51.222;5.678;2023-08-01T02:53:56;11.90;;;5.37;;
28772;SDS011;15925;51.222;5.678;2023-08-01T02:56:22;28.53;;;5.13;;
28772;SDS011;15925;51.222;5.678;2023-08-01T02:58:48;10.53;;;5.20;;
28772;SDS011;15925;51.222;5.678;2023-08-01T03:01:13;14.03;;;5.53;;
28772;SDS011;15925;51.222;5.678;2023-08-01T03:03:39;29.70;;;6.00;;
28772;SDS011;15925;51.222;5.678;2023-08-01T03:06:07;18.45;;;5.22;;
28772;SDS011;15925;51.222;5.678;2023-08-01T03:08:33;8.83;;;4.63;;
28772;SDS011;15925;51.222;5.678;2023-08-01T03:10:59;9.20;;;4.63;;
28772;SDS011;15925;51.222;5.678;2023-08-01T03:13:25;12.87;;;6.27;;
28772;SDS011;15925;51.222;5.678;2023-08-01T03:15:51;17.05;;;6.68;;
28772;SDS011;15925;51.222;5.678;2023-08-01T03:18:17;10.93;;;4.57;;
28772;SDS011;15925;51.222;5.678;2023-08-01T03:20:43;15.70;;;5.23;;
28772;SDS011;15925;51.222;5.678;2023-08-01T03:23:09;12.88;;;4.82;;
28772;SDS011;15925;51.222;5.678;2023-08-01T03:25:35;14.53;;;5.10;;
28772;SDS011;15925;51.222;5.678;2023-08-01T03:28:00;12.70;;;5.50;;
28772;SDS011;15925;51.222;5.678;2023-08-01T03:30:27;15.63;;;5.22;;
28772;SDS011;15925;51.222;5.678;2023-08-01T03:32:54;9.30;;;4.53;;
28772;SDS011;15925;51.222;5.678;2023-08-01T03:35:19;18.50;;;5.37;;
28772;SDS011;15925;51.222;5.678;2023-08-01T03:37:45;12.80;;;4.47;;
28772;SDS011;15925;51.222;5.678;2023-08-01T03:40:11;9.03;;;5.00;;
28772;SDS011;15925;51.222;5.678;2023-08-01T03:42:36;16.73;;;5.37;;
28772;SDS011;15925;51.222;5.678;2023-08-01T03:45:03;10.73;;;5.03;;
28772;SDS011;15925;51.222;5.678;2023-08-01T03:49:55;22.20;;;4.82;;
28772;SDS011;15925;51.222;5.678;2023-08-01T03:52:21;14.30;;;5.00;;
28772;SDS011;15925;51.222;5.678;2023-08-01T03:54:46;13.97;;;4.80;;
28772;SDS011;15925;51.222;5.678;2023-08-01T03:57:13;11.45;;;4.90;;
28772;SDS011;15925;51.222;5.678;2023-08-01T03:59:39;13.07;;;4.55;;
28772;SDS011;15925;51.222;5.678;2023-08-01T04:02:05;14.73;;;5.53;;
28772;SDS011;15925;51.222;5.678;2023-08-01T04:04:31;9.33;;;4.20;;
28772;SDS011;15925;51.222;5.678;2023-08-01T04:06:57;8.80;;;4.93;;
28772;SDS011;15925;51.222;5.678;2023-08-01T04:09:23;13.35;;;4.07;;
28772;SDS011;15925;51.222;5.678;2023-08-01T04:11:48;14.37;;;4.23;;
28772;SDS011;15925;51.222;5.678;2023-08-01T04:14:14;8.03;;;3.83;;
28772;SDS011;15925;51.222;5.678;2023-08-01T04:16:40;8.83;;;3.97;;
28772;SDS011;15925;51.222;5.678;2023-08-01T04:19:05;10.40;;;4.23;;
28772;SDS011;15925;51.222;5.678;2023-08-01T04:21:31;12.53;;;4.13;;
28772;SDS011;15925;51.222;5.678;2023-08-01T04:23:57;17.80;;;4.47;;
28772;SDS011;15925;51.222;5.678;2023-08-01T04:26:23;13.67;;;4.33;;
28772;SDS011;15925;51.222;5.678;2023-08-01T04:28:48;18.30;;;5.43;;
28772;SDS011;15925;51.222;5.678;2023-08-01T04:31:14;8.30;;;3.67;;
28772;SDS011;15925;51.222;5.678;2023-08-01T04:33:40;9.45;;;3.40;;
28772;SDS011;15925;51.222;5.678;2023-08-01T04:36:06;11.77;;;2.80;;
28772;SDS011;15925;51.222;5.678;2023-08-01T04:38:32;11.15;;;3.45;;
28772;SDS011;15925;51.222;5.678;2023-08-01T04:40:57;14.73;;;3.77;;
28772;SDS011;15925;51.222;5.678;2023-08-01T04:43:23;12.57;;;3.70;;
28772;SDS011;15925;51.222;5.678;2023-08-01T04:45:49;9.87;;;3.63;;
28772;SDS011;15925;51.222;5.678;2023-08-01T04:48:15;8.20;;;3.67;;
28772;SDS011;15925;51.222;5.678;2023-08-01T04:50:41;8.98;;;3.55;;
28772;SDS011;15925;51.222;5.678;2023-08-01T04:53:06;8.40;;;3.83;;
28772;SDS011;15925;51.222;5.678;2023-08-01T04:55:32;8.35;;;3.55;;
28772;SDS011;15925;51.222;5.678;2023-08-01T04:57:58;7.40;;;3.77;;
28772;SDS011;15925;51.222;5.678;2023-08-01T05:00:24;6.10;;;3.57;;
28772;SDS011;15925;51.222;5.678;2023-08-01T05:02:53;23.97;;;4.63;;
28772;SDS011;15925;51.222;5.678;2023-08-01T05:05:19;6.05;;;3.00;;
28772;SDS011;15925;51.222;5.678;2023-08-01T05:07:44;14.33;;;2.93;;
28772;SDS011;15925;51.222;5.678;2023-08-01T05:10:10;10.37;;;3.87;;
28772;SDS011;15925;51.222;5.678;2023-08-01T05:12:36;12.77;;;4.60;;
28772;SDS011;15925;51.222;5.678;2023-08-01T05:15:02;17.55;;;3.83;;
28772;SDS011;15925;51.222;5.678;2023-08-01T05:17:28;16.30;;;3.88;;
28772;SDS011;15925;51.222;5.678;2023-08-01T05:19:54;10.17;;;3.40;;
28772;SDS011;15925;51.222;5.678;2023-08-01T05:22:20;10.30;;;3.55;;
28772;SDS011;15925;51.222;5.678;2023-08-01T05:24:46;8.50;;;3.57;;
28772;SDS011;15925;51.222;5.678;2023-08-01T05:27:12;10.73;;;3.43;;
28772;SDS011;15925;51.222;5.678;2023-08-01T05:33:24;8.70;;;3.35;;
28772;SDS011;15925;51.222;5.678;2023-08-01T05:35:50;25.38;;;4.20;;
28772;SDS011;15925;51.222;5.678;2023-08-01T05:38:16;10.23;;;3.50;;
28772;SDS011;15925;51.222;5.678;2023-08-01T05:40:42;5.97;;;3.17;;
28772;SDS011;15925;51.222;5.678;2023-08-01T05:43:08;9.27;;;3.47;;
28772;SDS011;15925;51.222;5.678;2023-08-01T05:45:34;6.90;;;3.07;;
28772;SDS011;15925;51.222;5.678;2023-08-01T05:48:01;13.38;;;4.32;;
28772;SDS011;15925;51.222;5.678;2023-08-01T05:50:27;13.73;;;4.45;;
28772;SDS011;15925;51.222;5.678;2023-08-01T05:52:53;11.70;;;4.40;;
28772;SDS011;15925;51.222;5.678;2023-08-01T05:55:18;8.13;;;3.60;;
28772;SDS011;15925;51.222;5.678;2023-08-01T05:57:45;14.75;;;3.80;;
28772;SDS011;15925;51.222;5.678;2023-08-01T06:00:11;15.70;;;5.40;;
28772;SDS011;15925;51.222;5.678;2023-08-01T06:02:40;10.18;;;4.53;;
28772;SDS011;15925;51.222;5.678;2023-08-01T06:05:06;10.25;;;4.38;;
28772;SDS011;15925;51.222;5.678;2023-08-01T06:07:32;7.65;;;3.83;;
28772;SDS011;15925;51.222;5.678;2023-08-01T06:09:58;15.73;;;3.72;;
28772;SDS011;15925;51.222;5.678;2023-08-01T06:12:23;8.43;;;3.92;;
28772;SDS011;15925;51.222;5.678;2023-08-01T06:14:50;11.18;;;4.65;;
28772;SDS011;15925;51.222;5.678;2023-08-01T06:17:16;9.97;;;5.00;;
28772;SDS011;15925;51.222;5.678;2023-08-01T06:19:42;11.02;;;3.20;;
28772;SDS011;15925;51.222;5.678;2023-08-01T06:22:08;10.63;;;4.60;;
28772;SDS011;15925;51.222;5.678;2023-08-01T06:24:33;11.18;;;3.33;;
28772;SDS011;15925;51.222;5.678;2023-08-01T06:26:59;11.68;;;4.07;;
28772;SDS011;15925;51.222;5.678;2023-08-01T06:29:25;8.30;;;4.00;;
28772;SDS011;15925;51.222;5.678;2023-08-01T06:31:51;12.37;;;4.17;;
28772;SDS011;15925;51.222;5.678;2023-08-01T06:34:17;10.85;;;4.68;;
28772;SDS011;15925;51.222;5.678;2023-08-01T06:36:42;12.73;;;4.30;;
28772;SDS011;15925;51.222;5.678;2023-08-01T06:39:08;13.30;;;4.10;;
28772;SDS011;15925;51.222;5.678;2023-08-01T06:41:34;12.73;;;4.75;;
28772;SDS011;15925;51.222;5.678;2023-08-01T06:46:26;8.82;;;3.22;;
28772;SDS011;15925;51.222;5.678;2023-08-01T06:48:52;8.03;;;3.57;;
28772;SDS011;15925;51.222;5.678;2023-08-01T06:51:18;10.02;;;3.28;;
28772;SDS011;15925;51.222;5.678;2023-08-01T06:53:44;16.33;;;3.50;;
28772;SDS011;15925;51.222;5.678;2023-08-01T06:56:10;12.80;;;4.00;;
28772;SDS011;15925;51.222;5.678;2023-08-01T06:58:36;24.48;;;4.03;;
28772;SDS011;15925;51.222;5.678;2023-08-01T07:01:01;14.50;;;3.67;;
28772;SDS011;15925;51.222;5.678;2023-08-01T07:03:28;12.13;;;3.92;;
28772;SDS011;15925;51.222;5.678;2023-08-01T07:05:54;7.75;;;3.97;;
28772;SDS011;15925;51.222;5.678;2023-08-01T07:08:19;12.90;;;3.77;;
28772;SDS011;15925;51.222;5.678;2023-08-01T07:13:12;8.77;;;3.28;;
28772;SDS011;15925;51.222;5.678;2023-08-01T07:15:38;12.70;;;3.77;;
28772;SDS011;15925;51.222;5.678;2023-08-01T07:18:03;10.63;;;2.80;;
28772;SDS011;15925;51.222;5.678;2023-08-01T07:20:29;5.30;;;2.55;;
28772;SDS011;15925;51.222;5.678;2023-08-01T07:22:55;17.43;;;3.10;;
28772;SDS011;15925;51.222;5.678;2023-08-01T07:25:21;17.37;;;4.10;;
28772;SDS011;15925;51.222;5.678;2023-08-01T07:27:47;11.07;;;3.72;;
28772;SDS011;15925;51.222;5.678;2023-08-01T07:30:13;17.60;;;3.77;;
28772;SDS011;15925;51.222;5.678;2023-08-01T07:32:39;4.90;;;2.53;;
28772;SDS011;15925;51.222;5.678;2023-08-01T07:35:05;5.25;;;2.55;;
28772;SDS011;15925;51.222;5.678;2023-08-01T07:40:00;11.88;;;4.22;;
28772;SDS011;15925;51.222;5.678;2023-08-01T07:42:26;4.60;;;2.75;;
28772;SDS011;15925;51.222;5.678;2023-08-01T07:44:52;11.40;;;3.27;;
28772;SDS011;15925;51.222;5.678;2023-08-01T07:47:17;12.10;;;2.93;;
28772;SDS011;15925;51.222;5.678;2023-08-01T07:49:43;23.10;;;3.90;;
28772;SDS011;15925;51.222;5.678;2023-08-01T07:52:09;6.40;;;3.33;;
28772;SDS011;15925;51.222;5.678;2023-08-01T07:54:35;10.13;;;3.83;;
28772;SDS011;15925;51.222;5.678;2023-08-01T07:57:01;17.77;;;2.88;;
28772;SDS011;15925;51.222;5.678;2023-08-01T07:59:27;27.27;;;3.50;;
28772;SDS011;15925;51.222;5.678;2023-08-01T08:01:52;7.37;;;3.27;;
28772;SDS011;15925;51.222;5.678;2023-08-01T08:04:18;13.98;;;3.42;;
28772;SDS011;15925;51.222;5.678;2023-08-01T08:06:44;12.90;;;3.43;;
28772;SDS011;15925;51.222;5.678;2023-08-01T08:09:10;7.15;;;2.88;;
28772;SDS011;15925;51.222;5.678;2023-08-01T08:11:36;5.87;;;2.73;;
28772;SDS011;15925;51.222;5.678;2023-08-01T08:14:01;15.77;;;2.87;;
28772;SDS011;15925;51.222;5.678;2023-08-01T08:16:27;16.20;;;2.97;;
28772;SDS011;15925;51.222;5.678;2023-08-01T08:18:53;13.27;;;3.17;;
28772;SDS011;15925;51.222;5.678;2023-08-01T08:21:19;8.40;;;2.90;;
28772;SDS011;15925;51.222;5.678;2023-08-01T08:23:45;7.15;;;3.25;;
28772;SDS011;15925;51.222;5.678;2023-08-01T08:26:11;12.40;;;3.93;;
28772;SDS011;15925;51.222;5.678;2023-08-01T08:28:37;10.00;;;2.50;;
28772;SDS011;15925;51.222;5.678;2023-08-01T08:31:02;6.37;;;2.60;;
28772;SDS011;15925;51.222;5.678;2023-08-01T08:33:30;13.70;;;3.28;;
28772;SDS011;15925;51.222;5.678;2023-08-01T08:35:56;5.43;;;2.67;;
28772;SDS011;15925;51.222;5.678;2023-08-01T08:38:22;4.30;;;2.60;;
28772;SDS011;15925;51.222;5.678;2023-08-01T08:41:09;6.63;;;2.97;;
28772;SDS011;15925;51.222;5.678;2023-08-01T08:43:35;9.47;;;2.43;;
28772;SDS011;15925;51.222;5.678;2023-08-01T08:46:02;24.23;;;3.20;;
28772;SDS011;15925;51.222;5.678;2023-08-01T08:48:29;8.77;;;2.03;;
28772;SDS011;15925;51.222;5.678;2023-08-01T08:50:59;7.82;;;2.67;;
28772;SDS011;15925;51.222;5.678;2023-08-01T08:53:26;4.93;;;2.15;;
28772;SDS011;15925;51.222;5.678;2023-08-01T08:55:52;9.75;;;2.65;;
28772;SDS011;15925;51.222;5.678;2023-08-01T08:58:18;10.32;;;2.47;;
28772;SDS011;15925;51.222;5.678;2023-08-01T09:00:45;11.55;;;3.58;;
28772;SDS011;15925;51.222;5.678;2023-08-01T09:03:11;4.60;;;1.83;;
28772;SDS011;15925;51.222;5.678;2023-08-01T09:05:44;12.10;;;2.50;;
28772;SDS011;15925;51.222;5.678;2023-08-01T09:08:30;8.00;;;2.42;;
28772;SDS011;15925;51.222;5.678;2023-08-01T09:10:58;12.07;;;3.25;;
28772;SDS011;15925;51.222;5.678;2023-08-01T09:13:24;4.45;;;2.08;;
28772;SDS011;15925;51.222;5.678;2023-08-01T09:15:50;5.75;;;2.60;;
28772;SDS011;15925;51.222;5.678;2023-08-01T09:18:16;3.88;;;1.73;;
28772;SDS011;15925;51.222;5.678;2023-08-01T09:20:46;7.15;;;2.25;;
28772;SDS011;15925;51.222;5.678;2023-08-01T09:23:13;5.90;;;1.95;;
28772;SDS011;15925;51.222;5.678;2023-08-01T09:25:40;21.15;;;2.03;;
28772;SDS011;15925;51.222;5.678;2023-08-01T09:30:46;4.00;;;1.63;;
28772;SDS011;15925;51.222;5.678;2023-08-01T09:33:13;4.47;;;1.95;;
28772;SDS011;15925;51.222;5.678;2023-08-01T09:35:38;4.23;;;1.80;;
28772;SDS011;15925;51.222;5.678;2023-08-01T09:38:04;7.73;;;1.70;;
28772;SDS011;15925;51.222;5.678;2023-08-01T09:40:37;10.35;;;1.98;;
28772;SDS011;15925;51.222;5.678;2023-08-01T09:43:03;10.70;;;1.52;;
28772;SDS011;15925;51.222;5.678;2023-08-01T09:45:29;6.80;;;2.15;;
28772;SDS011;15925;51.222;5.678;2023-08-01T09:47:54;6.97;;;2.30;;
28772;SDS011;15925;51.222;5.678;2023-08-01T09:50:21;4.27;;;2.13;;
28772;SDS011;15925;51.222;5.678;2023-08-01T09:52:48;7.35;;;2.05;;
28772;SDS011;15925;51.222;5.678;2023-08-01T09:55:31;5.93;;;2.17;;
28772;SDS011;15925;51.222;5.678;2023-08-01T09:57:58;6.05;;;1.95;;
28772;SDS011;15925;51.222;5.678;2023-08-01T10:00:28;7.32;;;1.90;;
28772;SDS011;15925;51.222;5.678;2023-08-01T10:02:58;4.10;;;1.58;;
28772;SDS011;15925;51.222;5.678;2023-08-01T10:05:31;10.68;;;1.90;;
28772;SDS011;15925;51.222;5.678;2023-08-01T10:07:59;8.65;;;2.50;;
28772;SDS011;15925;51.222;5.678;2023-08-01T10:10:27;14.10;;;2.08;;
28772;SDS011;15925;51.222;5.678;2023-08-01T10:12:55;9.57;;;3.22;;
28772;SDS011;15925;51.222;5.678;2023-08-01T10:15:23;5.00;;;2.05;;
28772;SDS011;15925;51.222;5.678;2023-08-01T10:17:51;8.02;;;2.25;;
28772;SDS011;15925;51.222;5.678;2023-08-01T10:20:17;3.23;;;1.60;;
28772;SDS011;15925;51.222;5.678;2023-08-01T10:22:45;9.45;;;2.58;;
28772;SDS011;15925;51.222;5.678;2023-08-01T10:25:12;8.40;;;2.05;;
28772;SDS011;15925;51.222;5.678;2023-08-01T10:27:38;12.73;;;3.25;;
28772;SDS011;15925;51.222;5.678;2023-08-01T10:30:04;13.87;;;2.03;;
28772;SDS011;15925;51.222;5.678;2023-08-01T10:32:35;6.75;;;2.05;;
28772;SDS011;15925;51.222;5.678;2023-08-01T10:35:03;4.32;;;2.10;;
28772;SDS011;15925;51.222;5.678;2023-08-01T10:37:45;13.45;;;3.63;;
28772;SDS011;15925;51.222;5.678;2023-08-01T10:40:14;4.75;;;2.47;;
28772;SDS011;15925;51.222;5.678;2023-08-01T10:42:41;7.57;;;2.70;;
28772;SDS011;15925;51.222;5.678;2023-08-01T10:45:19;4.63;;;2.63;;
28772;SDS011;15925;51.222;5.678;2023-08-01T10:47:49;8.60;;;2.72;;
28772;SDS011;15925;51.222;5.678;2023-08-01T10:50:16;8.70;;;3.60;;
28772;SDS011;15925;51.222;5.678;2023-08-01T10:52:43;6.07;;;2.83;;
28772;SDS011;15925;51.222;5.678;2023-08-01T10:55:09;9.05;;;2.05;;
28772;SDS011;15925;51.222;5.678;2023-08-01T10:57:36;6.95;;;1.60;;
28772;SDS011;15925;51.222;5.678;2023-08-01T11:00:04;3.90;;;2.08;;
28772;SDS011;15925;51.222;5.678;2023-08-01T11:02:35;3.13;;;1.05;;
28772;SDS011;15925;51.222;5.678;2023-08-01T11:05:03;2.20;;;1.20;;
28772;SDS011;15925;51.222;5.678;2023-08-01T11:07:30;3.30;;;1.08;;
28772;SDS011;15925;51.222;5.678;2023-08-01T11:10:09;2.63;;;1.27;;
28772;SDS011;15925;51.222;5.678;2023-08-01T11:12:37;5.95;;;1.63;;
28772;SDS011;15925;51.222;5.678;2023-08-01T11:15:05;9.90;;;2.60;;
28772;SDS011;15925;51.222;5.678;2023-08-01T11:17:33;0.90;;;0.90;;
28772;SDS011;15925;51.222;5.678;2023-08-01T11:20:10;13.68;;;2.30;;
28772;SDS011;15925;51.222;5.678;2023-08-01T11:22:37;5.75;;;2.00;;
28772;SDS011;15925;51.222;5.678;2023-08-01T11:25:13;1.85;;;1.58;;
28772;SDS011;15925;51.222;5.678;2023-08-01T11:27:39;11.37;;;1.97;;
28772;SDS011;15925;51.222;5.678;2023-08-01T11:30:05;6.43;;;2.22;;
28772;SDS011;15925;51.222;5.678;2023-08-01T11:32:35;11.02;;;2.25;;
28772;SDS011;15925;51.222;5.678;2023-08-01T11:35:02;2.53;;;1.55;;
28772;SDS011;15925;51.222;5.678;2023-08-01T11:37:28;7.93;;;2.53;;
28772;SDS011;15925;51.222;5.678;2023-08-01T11:39:55;6.47;;;2.03;;
28772;SDS011;15925;51.222;5.678;2023-08-01T11:42:23;10.00;;;2.28;;
28772;SDS011;15925;51.222;5.678;2023-08-01T11:44:48;5.80;;;1.70;;
28772;SDS011;15925;51.222;5.678;2023-08-01T11:47:15;7.93;;;1.70;;
28772;SDS011;15925;51.222;5.678;2023-08-01T11:49:48;9.35;;;2.20;;
28772;SDS011;15925;51.222;5.678;2023-08-01T11:52:27;8.30;;;2.40;;
28772;SDS011;15925;51.222;5.678;2023-08-01T11:54:54;4.03;;;1.48;;
28772;SDS011;15925;51.222;5.678;2023-08-01T11:57:20;1.92;;;1.40;;
28772;SDS011;15925;51.222;5.678;2023-08-01T12:02:26;4.40;;;1.40;;
28772;SDS011;15925;51.222;5.678;2023-08-01T12:04:56;5.30;;;1.75;;
28772;SDS011;15925;51.222;5.678;2023-08-01T12:07:25;6.13;;;1.83;;
28772;SDS011;15925;51.222;5.678;2023-08-01T12:09:57;5.97;;;1.40;;
28772;SDS011;15925;51.222;5.678;2023-08-01T12:12:25;7.85;;;1.58;;
28772;SDS011;15925;51.222;5.678;2023-08-01T12:14:52;11.70;;;1.23;;
28772;SDS011;15925;51.222;5.678;2023-08-01T12:17:18;4.85;;;1.65;;
28772;SDS011;15925;51.222;5.678;2023-08-01T12:19:45;2.15;;;1.50;;
28772;SDS011;15925;51.222;5.678;2023-08-01T12:22:11;3.22;;;0.85;;
28772;SDS011;15925;51.222;5.678;2023-08-01T12:24:37;2.35;;;1.10;;
28772;SDS011;15925;51.222;5.678;2023-08-01T12:27:09;4.80;;;1.25;;
28772;SDS011;15925;51.222;5.678;2023-08-01T12:29:35;16.98;;;1.95;;
28772;SDS011;15925;51.222;5.678;2023-08-01T12:32:02;5.90;;;1.35;;
28772;SDS011;15925;51.222;5.678;2023-08-01T12:34:28;12.95;;;2.30;;
28772;SDS011;15925;51.222;5.678;2023-08-01T12:36:54;6.00;;;0.93;;
28772;SDS011;15925;51.222;5.678;2023-08-01T12:39:20;6.13;;;0.80;;
28772;SDS011;15925;51.222;5.678;2023-08-01T12:41:46;4.18;;;1.20;;
28772;SDS011;15925;51.222;5.678;2023-08-01T12:44:12;11.75;;;1.90;;
28772;SDS011;15925;51.222;5.678;2023-08-01T12:46:41;3.85;;;1.25;;
28772;SDS011;15925;51.222;5.678;2023-08-01T12:49:06;5.13;;;1.33;;
28772;SDS011;15925;51.222;5.678;2023-08-01T12:51:32;2.53;;;0.83;;
28772;SDS011;15925;51.222;5.678;2023-08-01T12:54:01;7.85;;;1.48;;
28772;SDS011;15925;51.222;5.678;2023-08-01T12:56:27;4.97;;;0.75;;
28772;SDS011;15925;51.222;5.678;2023-08-01T12:58:53;4.00;;;0.73;;
28772;SDS011;15925;51.222;5.678;2023-08-01T13:01:19;3.57;;;1.00;;
28772;SDS011;15925;51.222;5.678;2023-08-01T13:03:45;7.05;;;1.17;;
28772;SDS011;15925;51.222;5.678;2023-08-01T13:06:11;2.73;;;1.00;;
28772;SDS011;15925;51.222;5.678;2023-08-01T13:08:38;4.30;;;0.82;;
28772;SDS011;15925;51.222;5.678;2023-08-01T13:11:11;2.92;;;0.90;;
28772;SDS011;15925;51.222;5.678;2023-08-01T13:13:38;3.42;;;1.10;;
28772;SDS011;15925;51.222;5.678;2023-08-01T13:16:08;5.88;;;0.90;;
28772;SDS011;15925;51.222;5.678;2023-08-01T13:18:34;7.53;;;0.98;;
28772;SDS011;15925;51.222;5.678;2023-08-01T13:21:00;1.75;;;0.88;;
28772;SDS011;15925;51.222;5.678;2023-08-01T13:23:27;7.20;;;1.75;;
28772;SDS011;15925;51.222;5.678;2023-08-01T13:25:52;5.85;;;1.10;;
28772;SDS011;15925;51.222;5.678;2023-08-01T13:28:18;10.50;;;0.95;;
28772;SDS011;15925;51.222;5.678;2023-08-01T13:30:44;11.23;;;1.45;;
28772;SDS011;15925;51.222;5.678;2023-08-01T13:33:10;0.80;;;0.40;;
28772;SDS011;15925;51.222;5.678;2023-08-01T13:35:35;3.17;;;0.83;;
28772;SDS011;15925;51.222;5.678;2023-08-01T13:38:01;9.15;;;1.65;;
28772;SDS011;15925;51.222;5.678;2023-08-01T13:40:29;2.22;;;0.60;;
28772;SDS011;15925;51.222;5.678;2023-08-01T13:42:56;18.75;;;0.88;;
28772;SDS011;15925;51.222;5.678;2023-08-01T13:45:21;5.40;;;1.03;;
28772;SDS011;15925;51.222;5.678;2023-08-01T13:47:47;2.67;;;0.97;;
28772;SDS011;15925;51.222;5.678;2023-08-01T13:50:13;1.52;;;0.60;;
28772;SDS011;15925;51.222;5.678;2023-08-01T13:52:39;1.90;;;0.43;;
28772;SDS011;15925;51.222;5.678;2023-08-01T13:55:05;2.13;;;0.57;;
28772;SDS011;15925;51.222;5.678;2023-08-01T13:57:32;1.27;;;0.50;;
28772;SDS011;15925;51.222;5.678;2023-08-01T13:59:58;2.23;;;0.70;;
28772;SDS011;15925;51.222;5.678;2023-08-01T14:02:23;2.13;;;0.83;;
28772;SDS011;15925;51.222;5.678;2023-08-01T14:04:52;4.10;;;0.55;;
28772;SDS011;15925;51.222;5.678;2023-08-01T14:07:18;2.50;;;1.05;;
28772;SDS011;15925;51.222;5.678;2023-08-01T14:09:44;2.27;;;0.67;;
28772;SDS011;15925;51.222;5.678;2023-08-01T14:12:10;3.40;;;0.97;;
28772;SDS011;15925;51.222;5.678;2023-08-01T14:14:35;1.77;;;0.50;;
28772;SDS011;15925;51.222;5.678;2023-08-01T14:17:01;5.63;;;1.17;;
28772;SDS011;15925;51.222;5.678;2023-08-01T14:19:27;3.55;;;0.98;;
28772;SDS011;15925;51.222;5.678;2023-08-01T14:21:55;2.42;;;0.57;;
28772;SDS011;15925;51.222;5.678;2023-08-01T14:24:22;5.28;;;1.02;;
28772;SDS011;15925;51.222;5.678;2023-08-01T14:26:48;5.50;;;1.10;;
28772;SDS011;15925;51.222;5.678;2023-08-01T14:29:16;10.65;;;0.60;;
28772;SDS011;15925;51.222;5.678;2023-08-01T14:31:47;3.03;;;0.82;;
28772;SDS011;15925;51.222;5.678;2023-08-01T14:34:15;14.63;;;2.13;;
28772;SDS011;15925;51.222;5.678;2023-08-01T14:36:41;25.42;;;3.35;;
28772;SDS011;15925;51.222;5.678;2023-08-01T14:39:06;6.27;;;1.53;;
28772;SDS011;15925;51.222;5.678;2023-08-01T14:41:32;2.53;;;0.70;;
28772;SDS011;15925;51.222;5.678;2023-08-01T14:43:58;6.40;;;1.00;;
28772;SDS011;15925;51.222;5.678;2023-08-01T14:46:24;2.80;;;0.70;;
28772;SDS011;15925;51.222;5.678;2023-08-01T14:48:50;4.37;;;0.73;;
28772;SDS011;15925;51.222;5.678;2023-08-01T14:51:16;1.55;;;0.60;;
28772;SDS011;15925;51.222;5.678;2023-08-01T14:53:42;1.92;;;0.77;;
28772;SDS011;15925;51.222;5.678;2023-08-01T14:56:08;3.93;;;0.83;;
28772;SDS011;15925;51.222;5.678;2023-08-01T14:58:33;5.35;;;0.93;;
28772;SDS011;15925;51.222;5.678;2023-08-01T15:01:04;2.72;;;1.05;;
28772;SDS011;15925;51.222;5.678;2023-08-01T15:03:36;12.13;;;1.00;;